Jackson, WY

5:16 PM MST on December 24, 2014 (GMT -0700)
Snow King Dr | Change Station
CLOSE
Current Station
Personal Weather Station
Location: Jackson, WY
Elevation: 6660 ft
Nearby Weather Stations
Active Advisory: Winter Weather Advisory

Elev 6660 ft 43.47 °N, 110.75 °W | Updated 7 minutes ago

Mostly Cloudy
Mostly Cloudy
28.5 °F
Feels Like 28 °F
N
1.0
Wind Variable Wind from South
Gusts 5.0 mph

Today
High -- | Low -- °F
--% Chance of Precip.
Yesterday
High -- | Low -- °F
Precip. -- in
7:54 AM 4:51 PM
Waxing Crescent, 12% visible
Pressure 29.60 in
Visibility 0.8 miles
Clouds Overcast 1000 ft
Windchill 28 °F
Dew Point 26 °F
Humidity 89%
Rainfall 0.00 in
Snow Depth Not available.
UV 0 out of 12
Pollen .10 out of 12
Air Quality Not available.
Flu Activity Not available.
METAR KJAC 242351Z 21011KT 3/4SM SN OVC010 M02/M02 A2960 SN

More Conditions Fewer Conditions

Pressure 29.60 in
Visibility 0.8 miles
Clouds Overcast 1000 ft
Windchill 28 °F
Dew Point 26 °F
Humidity 89%
Rainfall 0.00 in
Snow Depth Not available.
UV 0 out of 12
Pollen .10 out of 12
Air Quality Not available.
Flu Activity Not available.
METAR KJAC 242351Z 21011KT 3/4SM SN OVC010 M02/M02 A2960 SN

More Conditions Fewer Conditions

10-Day Weather Forecast

Almanac

Astronomy

Dec. 24, 2014 Rise Set
Actual Time
Civil Twilight
Nautical Twilight
Astronomical Twilight
Moon
Length of Visible Light
Length of Day
Tomorrow will be .
, % of the Moon is Illuminated

Today's Extremes

State Highs State Lows

Community

WunderPhotos

Upload Photos

1,780,188 photos uploaded!

WunderBlogs® & News

Nearby

Air Quality

  Air Quality AQ Index Pollutant
Not available.

Snow Depth

Station Depth Elevation

Earthquake Activity

City Distance Mag. Time & Date
Minimum magnitude displayed is 2.5.

Coastal Water Temperatures

Place Temperature

Nearby Weather Stations